Terminal Aerodrome Forecast
Issued by NWS

Home | Current Version | Previous Version | Text Only | Print | Product List | Glossary On
Versions: 1 2 3 4 5 6 7 8 9 10 11 12 13 14 15 16 17 18 19 20 21 22 23 24 25 26 27
340
FTUS41 KOKX 011909 AAA
TAFTEB
TAF AMD
KTEB 011909Z 0119/0218 12007KT 6SM -RA BR OVC015
     FM012200 09005KT 3SM -RADZ BR OVC008
     FM020300 05004KT 2SM -RADZ BR OVC005
     FM021200 07005KT 3SM -RA BR OVC007
     FM021600 VRB04KT 5SM BR SCT009 OVC015=

USA.gov is the U.S. government's official web portal to all federal, state and local government web resources and services.